This is the latest recevied weather packets stored in our database for station/object EA4BCR. If no packets are shown the sender has not sent any weather packets the latest 1 day(s).
| Time | Temp. | Humidity | Pressure | Rain* | Wind** | Luminosity | Snow |
|---|---|---|---|---|---|---|---|
| 1778115055 | 13.33° C | 74% | 1011.8 hPa | - | - | - | - |
| 1778114455 | 12.78° C | 78% | 1012.2 hPa | - | - | - | - |
| 1778113855 | 12.78° C | 77% | 1012.2 hPa | - | - | - | - |
| 1778113255 | 13.33° C | 74% | 1012 hPa | - | - | - | - |
| 1778109655 | 13.33° C | 81% | 1012 hPa | - | - | - | - |
| 1778104255 | 13.33° C | 81% | 1011.8 hPa | - | - | - | - |
| 1778103055 | 13.33° C | 72% | 1011.5 hPa | - | - | - | - |
| 1778102455 | 13.33° C | 61% | 1011.5 hPa | - | - | - | - |
| 1778101855 | 13.89° C | 59% | 1011.1 hPa | - | - | - | - |
| 1778101255 | 13.89° C | 57% | 1010.9 hPa | - | - | - | - |
| 1778100655 | 13.89° C | 60% | 1010.7 hPa | - | - | - | - |
| 1778099455 | 14.44° C | 52% | 1010.2 hPa | - | - | - | - |
| 1778098855 | 14.44° C | 52% | 1010 hPa | - | - | - | - |
| 1778098255 | 15° C | 53% | 1009.8 hPa | - | - | - | - |
| 1778095255 | 17.22° C | 44% | 1008.3 hPa | - | - | - | - |
| 1778094655 | 17.78° C | 43% | 1008.2 hPa | - | - | - | - |
| 1778094055 | 18.33° C | 41% | 1007.9 hPa | - | - | - | - |
| 1778092855 | 18.89° C | 36% | 1007.3 hPa | - | - | - | - |
| 1778091655 | 19.44° C | 35% | 1007.2 hPa | - | - | - | - |
| 1778091055 | 20° C | 34% | 1006.9 hPa | - | - | - | - |
| 1778090455 | 20° C | 36% | 1006.8 hPa | - | - | - | - |
| 1778089855 | 20.56° C | 34% | 1006.7 hPa | - | - | - | - |
| 1778088055 | 20° C | 37% | 1007.1 hPa | - | - | - | - |
| 1778087455 | 20° C | 35% | 1007 hPa | - | - | - | - |
| 1778086255 | 20° C | 35% | 1007.1 hPa | - | - | - | - |
* Rain since midnight (hover to see other rain measurements)
** Current wind speed in m/s (hover to see current wind gust speed)